Time;durP1;ratioP1;P1;durP2;ratioP2;P2;SDS_P1;SDS_P2;PMS_P1;PMS_P2;Temp;Humidity;BMP_temperature;BMP_pressure;BME280_temperature;BME280_humidity;BME280_pressure;Samples;Min_cycle;Max_cycle;Signal;HPM_P1;HPM_P2
2021/07/02 00:00:11;;;;;;;46.78;29.60;;;17.70;99.90;;;;;;5012767;28;20073;-70
2021/07/02 00:02:39;;;;;;;46.70;27.98;;;17.70;99.90;;;;;;5013070;28;20066;-70
2021/07/02 00:05:06;;;;;;;42.60;26.33;;;17.70;99.90;;;;;;5013680;28;20510;-70
2021/07/02 00:07:32;;;;;;;40.85;27.30;;;17.60;99.90;;;;;;5012114;28;20034;-71
2021/07/02 00:09:57;;;;;;;46.75;29.08;;;17.70;99.90;;;;;;5013624;28;20112;-70
2021/07/02 00:12:23;;;;;;;47.88;27.13;;;17.60;99.90;;;;;;5012519;28;20076;-70
2021/07/02 00:14:49;;;;;;;36.53;25.70;;;17.60;99.90;;;;;;5014067;28;20108;-70
2021/07/02 00:17:14;;;;;;;53.45;29.00;;;17.60;99.90;;;;;;5012946;28;20048;-70
2021/07/02 00:19:40;;;;;;;41.13;26.38;;;17.60;99.90;;;;;;5013836;28;20040;-70
2021/07/02 00:22:06;;;;;;;49.83;28.85;;;17.60;99.90;;;;;;5013440;28;20045;-71
2021/07/02 00:24:31;;;;;;;48.05;28.50;;;17.60;99.90;;;;;;5013092;28;20045;-70
2021/07/02 00:26:57;;;;;;;42.40;26.05;;;17.60;99.90;;;;;;5013597;28;20041;-69
2021/07/02 00:29:23;;;;;;;46.35;27.10;;;17.60;99.90;;;;;;5010991;28;20021;-69
2021/07/02 00:31:49;;;;;;;47.75;26.70;;;17.60;99.90;;;;;;5011936;28;20701;-70
2021/07/02 00:34:14;;;;;;;40.63;26.08;;;17.60;99.90;;;;;;5012626;28;20029;-70
2021/07/02 00:36:40;;;;;;;46.90;27.27;;;17.50;99.90;;;;;;5012824;28;20029;-70
2021/07/02 00:39:07;;;;;;;41.05;26.33;;;17.50;99.90;;;;;;5012991;28;20558;-69
2021/07/02 00:41:33;;;;;;;46.45;27.10;;;17.50;99.90;;;;;;5040562;23;20053;-71
2021/07/02 00:43:59;;;;;;;45.20;26.80;;;17.50;99.90;;;;;;5031493;28;20040;-71
2021/07/02 00:46:25;;;;;;;41.28;24.15;;;17.50;99.90;;;;;;5030516;28;20025;-71
2021/07/02 00:48:52;;;;;;;39.00;24.23;;;17.50;99.90;;;;;;5029872;28;20466;-71
2021/07/02 00:51:18;;;;;;;44.67;24.88;;;17.50;99.90;;;;;;5031652;28;20087;-71
2021/07/02 00:53:45;;;;;;;40.47;24.13;;;17.50;99.90;;;;;;5021937;28;20026;-71
2021/07/02 00:56:14;;;;;;;43.25;25.02;;;17.40;99.90;;;;;;5029753;28;20049;-71
2021/07/02 00:58:40;;;;;;;47.55;25.20;;;17.40;99.90;;;;;;5031824;28;20033;-71
2021/07/02 01:01:14;;;;;;;36.42;22.98;;;17.40;99.90;;;;;;5031492;28;20049;-71
2021/07/02 01:03:40;;;;;;;42.67;24.48;;;17.40;99.90;;;;;;5031288;28;20475;-71
2021/07/02 01:06:05;;;;;;;43.50;23.27;;;17.40;99.90;;;;;;5031559;28;20390;-71
2021/07/02 01:08:31;;;;;;;37.33;22.77;;;17.40;99.90;;;;;;5030741;28;20032;-71
2021/07/02 01:10:57;;;;;;;39.10;22.55;;;17.40;99.90;;;;;;5033039;28;20041;-71
2021/07/02 01:13:23;;;;;;;42.53;21.48;;;17.30;99.90;;;;;;5018344;28;20114;-71
2021/07/02 01:15:53;;;;;;;35.85;21.40;;;17.30;99.90;;;;;;5030690;28;20109;-71
2021/07/02 01:18:19;;;;;;;46.92;21.38;;;17.30;99.90;;;;;;5014230;28;20021;-71
2021/07/02 01:20:50;;;;;;;38.63;21.50;;;17.40;99.90;;;;;;5029499;28;20434;-71
2021/07/02 01:23:16;;;;;;;35.08;18.90;;;17.30;99.90;;;;;;5030068;28;20033;-71
2021/07/02 01:25:43;;;;;;;36.05;19.83;;;17.30;99.90;;;;;;5031924;28;20048;-71
2021/07/02 01:28:09;;;;;;;35.70;20.35;;;17.20;99.90;;;;;;5030930;28;20029;-71
2021/07/02 01:30:35;;;;;;;30.08;17.30;;;17.20;99.90;;;;;;5029001;28;20087;-71
2021/07/02 01:33:00;;;;;;;36.45;20.20;;;17.20;99.90;;;;;;5030943;28;20037;-71
2021/07/02 01:35:26;;;;;;;40.45;19.40;;;17.20;99.90;;;;;;5031451;28;20025;-71
2021/07/02 01:37:52;;;;;;;33.28;18.63;;;17.20;99.90;;;;;;5031111;28;20418;-71
2021/07/02 01:40:17;;;;;;;29.88;17.52;;;17.20;99.90;;;;;;5031757;28;20030;-71
2021/07/02 01:42:43;;;;;;;32.65;18.08;;;17.10;99.90;;;;;;5031119;28;20033;-71
2021/07/02 01:45:09;;;;;;;26.33;17.45;;;17.20;99.90;;;;;;5017742;28;20136;-70
2021/07/02 01:47:37;;;;;;;31.40;17.30;;;17.10;99.90;;;;;;5030463;28;20071;-71
2021/07/02 01:50:04;;;;;;;29.48;17.00;;;17.10;99.80;;;;;;5030868;28;20115;-71
2021/07/02 01:52:30;;;;;;;32.80;18.35;;;17.00;99.90;;;;;;5028773;28;20068;-71
2021/07/02 01:54:56;;;;;;;27.80;16.42;;;17.10;99.90;;;;;;5031689;28;20053;-71
2021/07/02 01:57:24;;;;;;;27.08;16.90;;;17.00;99.90;;;;;;5017985;28;20033;-71
2021/07/02 01:59:50;;;;;;;28.75;17.33;;;17.00;99.90;;;;;;5030915;28;20029;-71
2021/07/02 02:02:16;;;;;;;31.30;17.20;;;17.10;99.90;;;;;;5028041;28;20568;-70
2021/07/02 02:04:42;;;;;;;32.22;17.35;;;17.00;99.80;;;;;;5031080;28;20033;-70
2021/07/02 02:07:08;;;;;;;30.45;17.20;;;17.00;99.90;;;;;;5031213;28;20060;-70
2021/07/02 02:09:34;;;;;;;29.10;16.25;;;17.00;99.90;;;;;;5030748;28;20060;-71
2021/07/02 02:12:01;;;;;;;29.45;16.95;;;17.00;99.90;;;;;;5032686;28;20098;-71
2021/07/02 02:14:27;;;;;;;30.40;18.08;;;17.00;99.90;;;;;;5029025;28;20033;-71
2021/07/02 02:16:53;;;;;;;25.85;16.38;;;17.00;99.90;;;;;;5030091;28;20029;-70
2021/07/02 02:19:19;;;;;;;27.20;16.42;;;17.00;99.60;;;;;;5028251;28;20037;-70
2021/07/02 02:21:45;;;;;;;28.23;15.50;;;17.00;99.60;;;;;;5019744;28;20029;-70
2021/07/02 02:24:10;;;;;;;32.78;17.17;;;17.00;99.50;;;;;;5029039;28;20025;-70
2021/07/02 02:26:36;;;;;;;33.55;18.33;;;16.90;99.70;;;;;;5030547;28;20053;-70
2021/07/02 02:29:02;;;;;;;25.40;15.50;;;16.90;99.50;;;;;;5030974;28;20048;-71
2021/07/02 02:31:28;;;;;;;32.08;17.67;;;16.90;99.50;;;;;;5030925;28;20033;-70
2021/07/02 02:33:54;;;;;;;33.58;17.65;;;16.80;99.30;;;;;;5018231;28;20041;-71
2021/07/02 02:36:20;;;;;;;29.35;18.02;;;16.80;99.40;;;;;;5029376;28;20028;-71
2021/07/02 02:38:45;;;;;;;42.25;18.50;;;16.80;99.40;;;;;;5031062;28;20045;-70
2021/07/02 02:41:11;;;;;;;35.47;19.20;;;16.70;99.50;;;;;;5030180;28;20030;-70
2021/07/02 02:43:37;;;;;;;32.30;17.52;;;16.70;99.30;;;;;;5029900;28;20026;-70
2021/07/02 02:46:03;;;;;;;32.33;18.05;;;16.70;99.30;;;;;;5029926;28;20033;-70
2021/07/02 02:48:29;;;;;;;30.50;18.10;;;16.70;99.40;;;;;;5026539;28;20470;-70
2021/07/02 02:50:54;;;;;;;28.25;16.38;;;16.60;99.40;;;;;;5028794;28;20044;-70
2021/07/02 02:53:20;;;;;;;34.00;18.90;;;16.60;99.30;;;;;;5027255;28;20540;-70
2021/07/02 02:55:46;;;;;;;32.97;18.65;;;16.60;99.40;;;;;;5029499;28;20395;-70
2021/07/02 02:58:12;;;;;;;29.88;17.10;;;16.60;99.30;;;;;;5029457;28;20014;-70
2021/07/02 03:00:37;;;;;;;28.70;17.23;;;16.60;99.50;;;;;;5029863;28;20025;-70
2021/07/02 03:03:03;;;;;;;29.65;17.45;;;16.60;99.60;;;;;;5018324;28;20483;-70
2021/07/02 03:05:29;;;;;;;28.77;18.85;;;16.60;99.30;;;;;;5030297;28;20061;-70
2021/07/02 03:07:55;;;;;;;33.95;19.13;;;16.60;99.30;;;;;;5028985;28;20538;-70
2021/07/02 03:10:22;;;;;;;32.03;18.20;;;16.50;99.50;;;;;;5028427;28;20030;-70
2021/07/02 03:12:51;;;;;;;34.95;18.58;;;16.50;99.40;;;;;;5028207;28;20029;-70
2021/07/02 03:15:17;;;;;;;34.05;20.38;;;16.50;99.40;;;;;;5029013;28;20030;-70
2021/07/02 03:17:42;;;;;;;38.80;20.20;;;16.50;99.50;;;;;;5028983;28;20167;-70
2021/07/02 03:20:10;;;;;;;35.00;20.45;;;16.50;99.50;;;;;;5030029;28;20035;-70
2021/07/02 03:22:36;;;;;;;36.58;19.95;;;16.40;99.60;;;;;;5030336;28;20040;-70
2021/07/02 03:25:05;;;;;;;35.03;19.13;;;16.40;99.50;;;;;;5028858;28;20113;-70
2021/07/02 03:27:31;;;;;;;31.25;19.05;;;16.40;99.60;;;;;;5028212;28;20084;-70
2021/07/02 03:29:57;;;;;;;35.00;19.17;;;16.40;99.50;;;;;;5029902;28;20060;-70
2021/07/02 03:32:23;;;;;;;38.40;18.83;;;16.50;99.60;;;;;;5027229;28;20065;-70
2021/07/02 03:34:49;;;;;;;35.17;19.08;;;16.40;99.50;;;;;;5028231;28;20081;-70
2021/07/02 03:37:16;;;;;;;33.75;18.70;;;16.50;99.70;;;;;;5028455;28;20038;-71
2021/07/02 03:39:42;;;;;;;29.65;18.92;;;16.40;99.60;;;;;;5031487;28;20026;-70
2021/07/02 03:42:08;;;;;;;31.65;19.05;;;16.40;99.60;;;;;;5027491;28;20041;-70
2021/07/02 03:44:34;;;;;;;30.20;17.27;;;16.40;99.60;;;;;;5030865;28;20065;-70
2021/07/02 03:47:00;;;;;;;31.88;18.55;;;16.40;99.60;;;;;;5029607;28;20487;-70
2021/07/02 03:49:26;;;;;;;30.23;17.50;;;16.40;99.60;;;;;;5026757;28;20037;-70
2021/07/02 03:51:52;;;;;;;31.08;18.38;;;16.50;99.60;;;;;;5016126;28;20037;-70
2021/07/02 03:54:21;;;;;;;36.50;20.20;;;16.50;99.60;;;;;;5028332;28;20065;-70
2021/07/02 03:59:32;;;;;;;34.95;18.00;;;16.50;99.40;;;;;;5027893;28;20104;-70
2021/07/02 04:01:58;;;;;;;37.25;18.63;;;16.50;99.40;;;;;;5027581;28;20216;-70
2021/07/02 04:04:24;;;;;;;30.40;17.20;;;16.50;99.30;;;;;;5029285;28;20060;-69
2021/07/02 04:06:49;;;;;;;28.02;17.45;;;16.50;99.40;;;;;;5028247;28;20026;-70
2021/07/02 04:09:15;;;;;;;41.83;18.58;;;16.50;99.30;;;;;;5028360;28;20033;-70
2021/07/02 04:11:41;;;;;;;45.63;18.33;;;16.50;99.10;;;;;;5028320;28;20037;-70
2021/07/02 04:14:07;;;;;;;29.75;17.50;;;16.50;99.20;;;;;;5026816;28;20036;-70
2021/07/02 04:16:33;;;;;;;35.05;18.20;;;16.50;99.20;;;;;;5022742;28;20030;-70
2021/07/02 04:19:00;;;;;;;35.80;18.35;;;16.50;99.30;;;;;;5028641;28;20034;-70
2021/07/02 04:21:26;;;;;;;32.92;16.10;;;16.40;99.10;;;;;;5029661;28;20117;-70
2021/07/02 04:23:52;;;;;;;33.33;18.27;;;16.50;99.30;;;;;;5028597;28;20036;-70
2021/07/02 04:26:17;;;;;;;31.42;17.50;;;16.50;99.00;;;;;;5028348;28;20041;-70
2021/07/02 04:28:43;;;;;;;31.75;17.77;;;16.50;99.10;;;;;;5027859;28;20564;-71
2021/07/02 04:31:09;;;;;;;36.67;17.48;;;16.50;99.10;;;;;;5027146;28;20037;-72
2021/07/02 04:33:35;;;;;;;28.83;16.27;;;16.50;99.10;;;;;;5026176;28;20025;-71
2021/07/02 04:36:00;;;;;;;25.85;16.52;;;16.50;98.90;;;;;;5028851;28;20513;-70
2021/07/02 04:38:26;;;;;;;27.50;15.75;;;16.50;99.00;;;;;;5028684;28;20370;-70
2021/07/02 04:40:52;;;;;;;28.45;16.92;;;16.60;99.10;;;;;;5028549;28;20467;-69
2021/07/02 04:43:20;;;;;;;31.67;16.92;;;16.60;98.90;;;;;;5030125;28;20033;-72
2021/07/02 04:45:46;;;;;;;28.92;16.27;;;16.60;98.70;;;;;;5031425;28;20041;-71
2021/07/02 04:48:12;;;;;;;26.92;16.90;;;16.50;98.80;;;;;;5030872;28;20034;-71
2021/07/02 04:50:37;;;;;;;25.33;15.35;;;16.50;98.80;;;;;;5030583;28;20043;-71
2021/07/02 04:53:03;;;;;;;27.25;15.60;;;16.60;98.80;;;;;;5032727;28;20025;-71
2021/07/02 04:55:29;;;;;;;24.92;15.45;;;16.60;98.70;;;;;;5031316;28;20067;-71
2021/07/02 04:57:55;;;;;;;29.75;16.80;;;16.50;98.60;;;;;;5030428;28;20029;-71
2021/07/02 05:00:21;;;;;;;28.63;16.33;;;16.60;98.60;;;;;;5031306;28;20033;-71
2021/07/02 05:02:46;;;;;;;28.17;17.05;;;16.60;98.60;;;;;;5031567;28;20099;-71
2021/07/02 05:05:12;;;;;;;29.92;16.65;;;16.60;98.60;;;;;;5032723;28;20038;-71
2021/07/02 05:07:39;;;;;;;28.88;16.42;;;16.60;98.50;;;;;;5029592;28;20033;-71
2021/07/02 05:10:05;;;;;;;30.58;16.80;;;16.60;98.60;;;;;;5032121;28;20033;-71
2021/07/02 05:12:32;;;;;;;27.10;15.60;;;16.60;98.60;;;;;;5030593;28;20038;-71
2021/07/02 05:14:58;;;;;;;30.08;16.75;;;16.60;98.50;;;;;;5031377;28;20029;-71
2021/07/02 05:17:25;;;;;;;27.55;16.02;;;16.70;98.40;;;;;;5032627;28;20080;-71
2021/07/02 05:19:50;;;;;;;28.58;15.73;;;16.70;98.70;;;;;;5031937;28;20101;-71
2021/07/02 05:22:18;;;;;;;22.08;13.90;;;16.70;98.70;;;;;;5028669;28;20105;-71
2021/07/02 05:24:45;;;;;;;23.63;15.32;;;16.80;98.60;;;;;;5027566;28;20049;-71
2021/07/02 05:27:11;;;;;;;27.33;15.32;;;16.80;98.40;;;;;;5029620;28;20049;-71
2021/07/02 05:29:37;;;;;;;24.52;14.38;;;16.80;98.50;;;;;;5035306;28;20033;-71
2021/07/02 05:32:04;;;;;;;24.50;14.73;;;16.90;98.10;;;;;;5032701;28;20084;-71
2021/07/02 05:34:30;;;;;;;23.80;14.48;;;16.90;98.10;;;;;;5029414;28;20109;-71
2021/07/02 05:36:56;;;;;;;20.48;14.55;;;16.90;98.00;;;;;;5030249;28;20026;-71
2021/07/02 05:39:22;;;;;;;19.52;14.02;;;16.90;98.20;;;;;;5030708;28;20290;-71
2021/07/02 05:41:48;;;;;;;29.60;15.18;;;17.00;98.30;;;;;;5030748;28;20029;-72
2021/07/02 05:44:13;;;;;;;25.10;14.48;;;17.10;98.40;;;;;;5028799;28;20029;-71
2021/07/02 05:46:39;;;;;;;26.77;14.65;;;17.10;98.20;;;;;;5022294;28;20037;-70
2021/07/02 05:49:05;;;;;;;24.33;14.80;;;17.10;97.90;;;;;;5017758;28;20032;-69
2021/07/02 05:51:32;;;;;;;23.52;14.02;;;17.10;97.60;;;;;;5023193;28;20729;-71
2021/07/02 05:53:58;;;;;;;20.58;13.43;;;17.10;97.70;;;;;;5020164;28;20160;-70
2021/07/02 05:56:28;;;;;;;25.52;15.50;;;17.10;97.90;;;;;;5022450;28;20136;-71
2021/07/02 05:58:57;;;;;;;26.02;16.60;;;17.10;97.80;;;;;;5023631;28;20029;-71
2021/07/02 06:01:23;;;;;;;20.65;14.90;;;17.10;97.80;;;;;;5016704;28;20040;-70
2021/07/02 06:03:49;;;;;;;23.17;16.08;;;17.20;97.90;;;;;;5021780;28;20025;-71
2021/07/02 06:06:15;;;;;;;24.98;16.77;;;17.20;97.80;;;;;;5020922;28;20068;-70
2021/07/02 06:08:41;;;;;;;29.15;16.80;;;17.20;97.80;;;;;;5021552;28;20029;-72
2021/07/02 06:11:06;;;;;;;26.40;15.95;;;17.20;97.60;;;;;;5021713;28;20036;-70
2021/07/02 06:13:32;;;;;;;31.13;17.40;;;17.20;97.50;;;;;;5024194;28;20513;-70
2021/07/02 06:15:58;;;;;;;31.80;15.23;;;17.20;97.50;;;;;;5021605;28;20033;-70
2021/07/02 06:18:24;;;;;;;24.17;15.32;;;17.20;97.60;;;;;;4987046;28;20064;-70
2021/07/02 06:20:54;;;;;;;28.77;15.63;;;17.20;97.50;;;;;;5020718;28;20029;-69
2021/07/02 06:23:21;;;;;;;23.30;15.10;;;17.30;97.60;;;;;;5025156;28;20029;-69
2021/07/02 06:25:48;;;;;;;31.23;16.63;;;17.20;97.50;;;;;;5028101;28;20064;-70
2021/07/02 06:28:14;;;;;;;29.10;16.15;;;17.30;97.60;;;;;;5029079;28;20042;-70
2021/07/02 06:30:41;;;;;;;33.40;15.50;;;17.30;97.60;;;;;;5026238;28;20029;-70
2021/07/02 06:33:07;;;;;;;25.42;15.88;;;17.40;97.20;;;;;;5014281;28;20029;-69
2021/07/02 06:35:33;;;;;;;23.77;13.68;;;17.40;97.20;;;;;;5026568;28;20036;-70
2021/07/02 06:37:58;;;;;;;26.15;14.50;;;17.30;97.30;;;;;;5028591;28;20034;-70
2021/07/02 06:40:24;;;;;;;23.60;14.82;;;17.40;97.40;;;;;;5029925;28;20100;-70
2021/07/02 06:42:50;;;;;;;25.17;16.45;;;17.40;97.40;;;;;;5044410;23;20038;-91
2021/07/02 06:45:19;;;;;;;23.58;15.27;;;17.40;96.90;;;;;;5023154;28;20037;-91
2021/07/02 06:47:58;;;;;;;26.77;15.90;;;17.30;96.90;;;;;;5025344;28;20035;-91
2021/07/02 06:50:26;;;;;;;27.65;13.80;;;17.30;97.10;;;;;;5004625;28;20032;-90
2021/07/02 06:52:53;;;;;;;22.63;14.70;;;17.30;97.10;;;;;;5007122;28;20029;-91
2021/07/02 06:55:20;;;;;;;26.25;13.77;;;17.40;97.20;;;;;;5030613;28;20083;-88
2021/07/02 06:57:45;;;;;;;27.15;14.68;;;17.40;97.00;;;;;;5003995;28;20022;-89
2021/07/02 07:00:12;;;;;;;24.77;14.45;;;17.50;97.20;;;;;;5011920;28;20083;-90
2021/07/02 07:02:45;;;;;;;25.05;14.75;;;17.70;97.00;;;;;;5033129;28;20029;-89
2021/07/02 07:05:13;;;;;;;21.75;12.57;;;17.80;96.80;;;;;;5014512;28;20060;-89
2021/07/02 07:07:40;;;;;;;21.63;13.95;;;17.90;96.50;;;;;;5025366;28;20498;-90
2021/07/02 07:10:07;;;;;;;21.58;13.57;;;18.00;96.40;;;;;;5007826;28;20029;-89
2021/07/02 07:12:33;;;;;;;22.38;13.30;;;18.10;96.80;;;;;;5006001;28;20089;-90
2021/07/02 07:15:05;;;;;;;24.63;13.40;;;18.20;96.50;;;;;;5004592;28;20490;-90
2021/07/02 07:17:32;;;;;;;20.13;14.15;;;18.30;96.00;;;;;;5002432;28;20049;-89
2021/07/02 07:19:57;;;;;;;22.95;13.75;;;18.30;96.10;;;;;;5002354;28;20034;-90
2021/07/02 07:22:26;;;;;;;22.45;13.73;;;18.40;95.80;;;;;;5033023;22;20020;-70
2021/07/02 07:24:51;;;;;;;22.95;13.80;;;18.40;95.70;;;;;;5027890;28;20400;-70
2021/07/02 07:27:17;;;;;;;21.42;13.77;;;18.50;95.50;;;;;;5027078;28;20038;-70
2021/07/02 07:29:43;;;;;;;24.63;13.70;;;18.50;95.10;;;;;;5028531;28;20032;-70
2021/07/02 07:32:09;;;;;;;19.23;13.15;;;18.50;94.50;;;;;;5028651;28;20040;-70
2021/07/02 07:37:10;;;;;;;24.38;14.25;;;18.40;95.30;;;;;;5027401;28;20032;-70
2021/07/02 07:39:36;;;;;;;24.95;15.68;;;18.30;95.00;;;;;;5027950;28;20052;-69
2021/07/02 07:42:03;;;;;;;24.15;14.48;;;18.30;95.30;;;;;;5028005;28;20036;-69
2021/07/02 07:44:29;;;;;;;25.27;13.20;;;18.30;95.40;;;;;;5029217;28;20060;-68
2021/07/02 07:46:55;;;;;;;22.65;14.07;;;18.30;95.40;;;;;;5027566;28;20986;-69
2021/07/02 07:49:22;;;;;;;19.17;12.70;;;18.30;95.20;;;;;;5026266;28;20045;-71
2021/07/02 07:51:51;;;;;;;22.23;13.23;;;18.30;95.30;;;;;;5023294;28;20164;-69
2021/07/02 07:54:16;;;;;;;21.50;14.73;;;18.30;95.20;;;;;;5019793;28;20029;-69
2021/07/02 07:56:50;;;;;;;20.40;13.10;;;18.30;95.30;;;;;;5023896;28;20051;-70
2021/07/02 07:59:21;;;;;;;27.90;16.02;;;18.40;95.50;;;;;;5021704;28;20116;-69
2021/07/02 08:01:47;;;;;;;20.33;13.48;;;18.50;95.20;;;;;;5027761;28;20509;-70
2021/07/02 08:04:14;;;;;;;19.67;12.60;;;18.50;95.10;;;;;;5023816;28;20041;-68
2021/07/02 08:06:44;;;;;;;19.50;12.25;;;18.50;95.00;;;;;;5024949;28;20108;-69
2021/07/02 08:09:11;;;;;;;19.48;12.10;;;18.50;95.40;;;;;;5026947;28;20467;-70
2021/07/02 08:11:38;;;;;;;19.15;13.13;;;18.50;95.40;;;;;;5026903;28;20507;-69
2021/07/02 08:14:04;;;;;;;18.23;12.80;;;18.50;95.30;;;;;;5025605;28;20017;-70
2021/07/02 08:16:31;;;;;;;18.98;12.38;;;18.50;95.40;;;;;;5023422;28;20029;-69
2021/07/02 08:18:56;;;;;;;15.65;11.27;;;18.50;94.90;;;;;;5026659;28;20033;-70
2021/07/02 08:21:22;;;;;;;19.85;12.07;;;18.50;94.90;;;;;;5030456;28;20021;-69
2021/07/02 08:23:48;;;;;;;20.23;12.45;;;18.50;94.40;;;;;;5029035;28;20116;-70
2021/07/02 08:26:14;;;;;;;18.88;12.25;;;18.50;94.40;;;;;;5030488;28;20375;-70
2021/07/02 08:31:25;;;;;;;22.75;12.57;;;18.40;93.70;;;;;;5032130;28;20075;-70
2021/07/02 08:33:50;;;;;;;18.17;11.90;;;18.40;93.70;;;;;;5029720;28;20021;-70
2021/07/02 08:36:16;;;;;;;18.30;11.90;;;18.40;93.80;;;;;;5029472;28;20041;-72
2021/07/02 08:38:42;;;;;;;17.67;12.20;;;18.40;94.00;;;;;;5030689;28;20025;-69
2021/07/02 08:41:12;;;;;;;19.35;13.48;;;18.40;93.80;;;;;;5032283;28;20061;-70
2021/07/02 08:43:42;;;;;;;18.13;12.20;;;18.40;94.20;;;;;;5027793;28;20494;-72
2021/07/02 08:46:13;;;;;;;19.40;11.17;;;18.50;94.00;;;;;;5030281;28;20112;-70
2021/07/02 08:48:40;;;;;;;20.70;13.27;;;18.50;94.00;;;;;;5028534;28;20061;-70
2021/07/02 08:51:07;;;;;;;18.73;13.05;;;18.60;93.60;;;;;;5030680;28;20290;-69
2021/07/02 08:53:34;;;;;;;19.10;11.13;;;18.70;93.60;;;;;;5029205;28;20033;-73
2021/07/02 08:56:03;;;;;;;19.70;12.45;;;18.80;93.20;;;;;;5031753;28;20080;-71
2021/07/02 08:58:29;;;;;;;25.35;14.13;;;18.90;93.10;;;;;;5027397;28;20039;-71
2021/07/02 09:00:55;;;;;;;21.98;12.35;;;18.90;93.40;;;;;;5032096;28;20479;-70
2021/07/02 09:03:28;;;;;;;20.20;13.60;;;18.90;93.90;;;;;;5029682;28;20029;-69
2021/07/02 09:06:10;;;;;;;22.70;14.95;;;18.90;94.00;;;;;;5035622;28;20029;-70
2021/07/02 09:08:37;;;;;;;19.85;13.68;;;19.10;93.60;;;;;;5031799;28;20108;-71
2021/07/02 09:11:31;;;;;;;22.08;15.10;;;19.10;94.00;;;;;;5032196;28;20025;-70
2021/07/02 09:13:57;;;;;;;20.55;14.60;;;19.20;94.20;;;;;;5031136;28;20042;-70
2021/07/02 09:16:28;;;;;;;25.10;15.65;;;19.20;94.10;;;;;;5032047;28;20025;-70
2021/07/02 09:18:54;;;;;;;20.77;13.88;;;19.30;93.80;;;;;;5029943;28;20040;-70
2021/07/02 09:21:30;;;;;;;23.27;14.57;;;19.30;93.70;;;;;;5029871;28;20044;-69
2021/07/02 09:23:58;;;;;;;20.88;13.93;;;19.40;93.10;;;;;;5033390;28;20025;-70
2021/07/02 09:26:41;;;;;;;25.10;14.40;;;19.40;93.10;;;;;;5032426;28;20061;-70
2021/07/02 09:29:15;;;;;;;21.88;12.75;;;19.40;93.10;;;;;;5028958;28;20159;-69
2021/07/02 09:31:41;;;;;;;17.63;11.63;;;19.50;92.70;;;;;;5029562;28;20071;-70
2021/07/02 09:34:07;;;;;;;15.65;12.27;;;19.60;92.10;;;;;;5036586;28;20053;-70
2021/07/02 09:36:33;;;;;;;17.92;12.15;;;19.70;92.40;;;;;;5033209;28;20029;-69
2021/07/02 09:38:58;;;;;;;17.17;11.65;;;19.70;92.10;;;;;;5029964;28;20593;-69
2021/07/02 09:41:34;;;;;;;16.73;12.48;;;19.80;91.90;;;;;;5032731;28;21703;-70
2021/07/02 09:44:11;;;;;;;19.67;12.90;;;19.90;92.00;;;;;;5030917;28;20040;-70
2021/07/02 09:46:36;;;;;;;17.85;12.48;;;20.00;91.60;;;;;;5033273;28;20092;-70
2021/07/02 09:49:03;;;;;;;18.90;12.48;;;20.10;92.00;;;;;;5033029;28;20476;-71
2021/07/02 09:51:28;;;;;;;16.88;12.50;;;20.20;91.30;;;;;;5032588;28;20040;-70
2021/07/02 09:54:07;;;;;;;17.13;11.73;;;20.20;91.90;;;;;;5032989;28;20021;-70
2021/07/02 09:56:33;;;;;;;18.60;12.60;;;20.10;91.40;;;;;;5031328;28;20035;-70
2021/07/02 09:58:59;;;;;;;17.45;12.45;;;20.00;91.30;;;;;;5030618;28;20034;-71
2021/07/02 10:01:29;;;;;;;16.35;11.63;;;20.10;90.70;;;;;;5031799;28;20100;-72
2021/07/02 10:04:07;;;;;;;16.65;11.55;;;20.00;90.80;;;;;;5032733;28;20148;-71
2021/07/02 10:06:33;;;;;;;13.93;10.80;;;20.20;90.90;;;;;;5030543;28;20021;-72
2021/07/02 10:09:04;;;;;;;14.38;10.70;;;20.30;90.50;;;;;;5030162;28;20040;-73
2021/07/02 10:11:30;;;;;;;17.75;12.25;;;20.40;92.00;;;;;;5031062;28;20021;-74
2021/07/02 10:13:58;;;;;;;19.23;12.95;;;20.50;91.10;;;;;;5030182;28;20395;-74
2021/07/02 10:16:24;;;;;;;19.35;12.00;;;20.50;90.80;;;;;;5030519;28;20022;-74
2021/07/02 10:18:54;;;;;;;16.23;11.90;;;20.40;90.70;;;;;;5030992;28;20048;-71
2021/07/02 10:21:23;;;;;;;15.55;10.95;;;20.40;90.60;;;;;;5029497;28;20025;-72
2021/07/02 10:24:04;;;;;;;13.68;9.88;;;20.30;90.90;;;;;;5031549;28;20036;-71
2021/07/02 10:26:35;;;;;;;17.00;10.40;;;20.30;90.00;;;;;;5032443;28;20045;-74
2021/07/02 10:29:01;;;;;;;12.02;9.20;;;20.20;89.20;;;;;;5031121;28;20045;-71
2021/07/02 10:31:27;;;;;;;13.93;9.48;;;20.30;90.30;;;;;;5014267;28;20025;-72
2021/07/02 10:33:55;;;;;;;15.68;10.05;;;20.30;89.80;;;;;;5031810;28;20096;-69
2021/07/02 10:36:22;;;;;;;9.80;8.18;;;20.40;88.90;;;;;;5031314;28;20030;-68
2021/07/02 10:38:50;;;;;;;14.75;9.93;;;20.50;90.40;;;;;;5031005;28;20025;-68
2021/07/02 10:41:28;;;;;;;13.52;9.88;;;20.50;89.10;;;;;;5030022;28;20523;-69
2021/07/02 10:44:09;;;;;;;14.63;9.65;;;20.60;87.60;;;;;;5030572;28;20036;-68
2021/07/02 10:46:58;;;;;;;16.98;10.98;;;20.70;90.10;;;;;;5029464;28;20112;-68
2021/07/02 10:49:42;;;;;;;16.35;10.77;;;20.70;89.30;;;;;;5028016;28;20033;-71
2021/07/02 10:52:28;;;;;;;13.93;9.93;;;20.90;89.60;;;;;;5030739;28;20126;-72
2021/07/02 10:54:58;;;;;;;12.70;9.10;;;20.90;88.30;;;;;;5030398;28;20494;-72
2021/07/02 10:57:26;;;;;;;13.98;9.52;;;20.90;87.00;;;;;;5026155;28;20044;-71
2021/07/02 10:59:55;;;;;;;11.25;8.45;;;20.90;87.20;;;;;;5029550;28;20021;-72
2021/07/02 11:02:23;;;;;;;11.52;8.07;;;20.90;87.30;;;;;;5029538;28;20510;-72
2021/07/02 11:04:53;;;;;;;12.10;8.88;;;20.90;86.00;;;;;;5022760;28;20072;-70
2021/07/02 11:07:18;;;;;;;13.45;9.25;;;21.00;84.60;;;;;;5025386;28;20033;-71
2021/07/02 11:10:04;;;;;;;13.63;9.07;;;21.10;82.50;;;;;;5020752;28;20041;-71
2021/07/02 11:12:38;;;;;;;13.35;9.35;;;21.20;83.80;;;;;;5029683;28;20154;-68
2021/07/02 11:15:08;;;;;;;12.70;8.60;;;21.00;84.00;;;;;;5030015;28;20487;-70
2021/07/02 11:17:34;;;;;;;13.73;9.07;;;21.00;84.80;;;;;;5030844;28;20026;-71
2021/07/02 11:20:12;;;;;;;9.82;7.60;;;21.10;84.40;;;;;;5028938;28;20087;-69
2021/07/02 11:22:53;;;;;;;11.95;7.68;;;21.10;82.80;;;;;;5025068;28;20029;-69
2021/07/02 11:25:32;;;;;;;10.52;7.45;;;21.20;84.30;;;;;;5026434;28;20037;-70
2021/07/02 11:28:01;;;;;;;10.02;6.88;;;21.30;85.20;;;;;;5027577;28;20037;-70
2021/07/02 11:30:34;;;;;;;9.38;7.05;;;21.50;83.60;;;;;;5026814;28;20055;-70
2021/07/02 11:33:09;;;;;;;23.02;11.88;;;21.60;83.40;;;;;;5026542;28;20045;-70
2021/07/02 11:35:40;;;;;;;19.15;13.63;;;21.80;80.80;;;;;;5027935;28;20032;-69
2021/07/02 11:38:11;;;;;;;21.67;12.40;;;21.90;82.50;;;;;;5025689;28;20084;-70
2021/07/02 11:40:55;;;;;;;11.68;9.20;;;21.90;80.20;;;;;;5028583;28;20395;-69
2021/07/02 11:43:38;;;;;;;15.30;11.00;;;21.90;81.50;;;;;;5027414;28;20517;-69
2021/07/02 11:46:05;;;;;;;9.32;7.03;;;22.00;80.40;;;;;;5027049;28;20033;-69
2021/07/02 11:48:34;;;;;;;10.70;6.68;;;22.00;80.00;;;;;;5015232;28;20777;-70
2021/07/02 11:51:08;;;;;;;10.77;6.70;;;21.90;80.80;;;;;;5026348;28;20040;-71
2021/07/02 11:53:41;;;;;;;10.07;6.88;;;22.00;83.40;;;;;;5018019;28;20033;-70
2021/07/02 11:56:13;;;;;;;11.07;7.15;;;22.10;80.80;;;;;;5026200;28;20079;-68
2021/07/02 11:59:01;;;;;;;9.70;7.28;;;22.10;81.20;;;;;;5028179;28;20032;-68
2021/07/02 12:01:45;;;;;;;13.60;7.40;;;22.20;81.50;;;;;;5027476;28;20049;-69
2021/07/02 12:04:17;;;;;;;11.75;6.65;;;22.00;79.40;;;;;;5028062;28;20097;-70
2021/07/02 12:06:51;;;;;;;9.95;6.85;;;21.90;80.60;;;;;;5029634;28;20030;-68
2021/07/02 12:09:24;;;;;;;10.05;6.57;;;21.80;82.20;;;;;;5029085;28;20033;-69
2021/07/02 12:11:58;;;;;;;10.75;6.45;;;21.70;81.10;;;;;;5007314;28;20056;-70
2021/07/02 12:14:29;;;;;;;9.27;6.50;;;22.00;83.30;;;;;;5030420;28;20407;-70
2021/07/02 12:16:58;;;;;;;10.40;6.75;;;22.70;80.60;;;;;;5030373;28;20107;-68
2021/07/02 12:19:29;;;;;;;7.93;6.10;;;23.20;76.50;;;;;;5029411;28;20379;-68
2021/07/02 12:21:56;;;;;;;11.45;6.85;;;23.50;76.70;;;;;;5030658;28;20025;-70
2021/07/02 12:24:25;;;;;;;10.45;6.95;;;24.20;74.60;;;;;;5030792;28;20038;-68
2021/07/02 12:26:56;;;;;;;9.82;6.18;;;25.00;72.20;;;;;;5030708;28;20113;-70
2021/07/02 12:29:27;;;;;;;7.65;5.38;;;25.60;70.80;;;;;;5029775;28;20037;-68
2021/07/02 12:32:00;;;;;;;8.52;5.72;;;25.80;72.40;;;;;;5029652;28;20044;-68
2021/07/02 12:34:47;;;;;;;7.47;5.80;;;25.60;71.10;;;;;;5028275;28;20032;-67
2021/07/02 12:37:13;;;;;;;7.53;5.20;;;25.30;70.60;;;;;;5029756;28;20037;-68
2021/07/02 12:39:43;;;;;;;9.02;6.15;;;24.70;70.20;;;;;;5030531;28;20133;-68